<?xml version="1.0" encoding="UTF-8" standalone="no" ?>
<gpx xmlns="http://www.topografix.com/GPX/1/1" xmlns:xsi="http://www.w3.org/2001/XMLSchema-instance" xsi:schemaLocation="http://www.topografix.com/GPX/1/1 http://www.topografix.com/GPX/1/1/gpx.xsd" version="1.1" creator="VisuGPX - https://www.visugpx.com">
  <metadata>
    <name>Les Charseux 25.03.12</name>
    <desc><![CDATA[belle petite sortie autour de Chars et il y avait du monde ce matin pour rouler.]]></desc>
  </metadata>
  <trk>
    <name><![CDATA[CHARS250312]]></name>
    <trkseg>
      <trkpt lat="49.1605" lon="1.9391">
        <ele>20</ele>
        <time>2012-03-25T07:02:26.830Z</time>
      </trkpt>
      <trkpt lat="49.16042" lon="1.93903">
        <ele>20</ele>
        <time>2012-03-25T07:02:45.840Z</time>
      </trkpt>
      <trkpt lat="49.16062" lon="1.93908">
        <ele>20</ele>
        <time>2012-03-25T07:03:39.850Z</time>
      </trkpt>
      <trkpt lat="49.16035" lon="1.93905">
        <ele>135</ele>
        <time>2012-03-25T07:13:38.840Z</time>
      </trkpt>
      <trkpt lat="49.16008" lon="1.9373">
        <ele>103</ele>
        <time>2012-03-25T07:15:57.850Z</time>
      </trkpt>
      <trkpt lat="49.15887" lon="1.93667">
        <ele>99</ele>
        <time>2012-03-25T07:16:23.850Z</time>
      </trkpt>
      <trkpt lat="49.15875" lon="1.9364">
        <ele>99</ele>
        <time>2012-03-25T07:16:28.850Z</time>
      </trkpt>
      <trkpt lat="49.15705" lon="1.93682">
        <ele>85</ele>
        <time>2012-03-25T07:17:00.840Z</time>
      </trkpt>
      <trkpt lat="49.15528" lon="1.93815">
        <ele>78</ele>
        <time>2012-03-25T07:17:37.840Z</time>
      </trkpt>
      <trkpt lat="49.15393" lon="1.93937">
        <ele>72</ele>
        <time>2012-03-25T07:18:05.840Z</time>
      </trkpt>
      <trkpt lat="49.15323" lon="1.93972">
        <ele>69</ele>
        <time>2012-03-25T07:18:26.840Z</time>
      </trkpt>
      <trkpt lat="49.15295" lon="1.93892">
        <ele>69</ele>
        <time>2012-03-25T07:19:00.850Z</time>
      </trkpt>
      <trkpt lat="49.15283" lon="1.93858">
        <ele>71</ele>
        <time>2012-03-25T07:19:07.850Z</time>
      </trkpt>
      <trkpt lat="49.15238" lon="1.93932">
        <ele>69</ele>
        <time>2012-03-25T07:19:25.840Z</time>
      </trkpt>
      <trkpt lat="49.15213" lon="1.93963">
        <ele>69</ele>
        <time>2012-03-25T07:19:33.850Z</time>
      </trkpt>
      <trkpt lat="49.15178" lon="1.9396">
        <ele>70</ele>
        <time>2012-03-25T07:19:42.850Z</time>
      </trkpt>
      <trkpt lat="49.15122" lon="1.93792">
        <ele>69</ele>
        <time>2012-03-25T07:20:12.850Z</time>
      </trkpt>
      <trkpt lat="49.15075" lon="1.93713">
        <ele>68</ele>
        <time>2012-03-25T07:20:27.860Z</time>
      </trkpt>
      <trkpt lat="49.15042" lon="1.93673">
        <ele>68</ele>
        <time>2012-03-25T07:20:42.840Z</time>
      </trkpt>
      <trkpt lat="49.1499" lon="1.93632">
        <ele>68</ele>
        <time>2012-03-25T07:20:52.850Z</time>
      </trkpt>
      <trkpt lat="49.1495" lon="1.93615">
        <ele>68</ele>
        <time>2012-03-25T07:21:02.850Z</time>
      </trkpt>
      <trkpt lat="49.14862" lon="1.93578">
        <ele>68</ele>
        <time>2012-03-25T07:21:21.860Z</time>
      </trkpt>
      <trkpt lat="49.14707" lon="1.93633">
        <ele>66</ele>
        <time>2012-03-25T07:21:49.850Z</time>
      </trkpt>
      <trkpt lat="49.14673" lon="1.9363">
        <ele>66</ele>
        <time>2012-03-25T07:21:54.850Z</time>
      </trkpt>
      <trkpt lat="49.14615" lon="1.93598">
        <ele>67</ele>
        <time>2012-03-25T07:22:04.840Z</time>
      </trkpt>
      <trkpt lat="49.14573" lon="1.93572">
        <ele>69</ele>
        <time>2012-03-25T07:22:11.840Z</time>
      </trkpt>
      <trkpt lat="49.14537" lon="1.93498">
        <ele>66</ele>
        <time>2012-03-25T07:22:21.850Z</time>
      </trkpt>
      <trkpt lat="49.14492" lon="1.93498">
        <ele>66</ele>
        <time>2012-03-25T07:22:33.850Z</time>
      </trkpt>
      <trkpt lat="49.1446" lon="1.93505">
        <ele>66</ele>
        <time>2012-03-25T07:22:39.840Z</time>
      </trkpt>
      <trkpt lat="49.1427" lon="1.9354">
        <ele>59</ele>
        <time>2012-03-25T07:23:14.840Z</time>
      </trkpt>
      <trkpt lat="49.14233" lon="1.93568">
        <ele>57</ele>
        <time>2012-03-25T07:23:23.840Z</time>
      </trkpt>
      <trkpt lat="49.14205" lon="1.93565">
        <ele>69</ele>
        <time>2012-03-25T07:23:34.850Z</time>
      </trkpt>
      <trkpt lat="49.14097" lon="1.93482">
        <ele>72</ele>
        <time>2012-03-25T07:24:06.850Z</time>
      </trkpt>
      <trkpt lat="49.14037" lon="1.93455">
        <ele>81</ele>
        <time>2012-03-25T07:24:20.850Z</time>
      </trkpt>
      <trkpt lat="49.13962" lon="1.93498">
        <ele>65</ele>
        <time>2012-03-25T07:24:37.850Z</time>
      </trkpt>
      <trkpt lat="49.13912" lon="1.93535">
        <ele>61</ele>
        <time>2012-03-25T07:24:50.860Z</time>
      </trkpt>
      <trkpt lat="49.1387" lon="1.93565">
        <ele>61</ele>
        <time>2012-03-25T07:25:02.400Z</time>
      </trkpt>
      <trkpt lat="49.1374" lon="1.93722">
        <ele>61</ele>
        <time>2012-03-25T07:25:36.850Z</time>
      </trkpt>
      <trkpt lat="49.13713" lon="1.9376">
        <ele>61</ele>
        <time>2012-03-25T07:25:44.860Z</time>
      </trkpt>
      <trkpt lat="49.13697" lon="1.93807">
        <ele>61</ele>
        <time>2012-03-25T07:25:55.860Z</time>
      </trkpt>
      <trkpt lat="49.13667" lon="1.93873">
        <ele>61</ele>
        <time>2012-03-25T07:26:10.850Z</time>
      </trkpt>
      <trkpt lat="49.13652" lon="1.9391">
        <ele>61</ele>
        <time>2012-03-25T07:26:18.860Z</time>
      </trkpt>
      <trkpt lat="49.13628" lon="1.9395">
        <ele>65</ele>
        <time>2012-03-25T07:26:27.850Z</time>
      </trkpt>
      <trkpt lat="49.13592" lon="1.94003">
        <ele>62</ele>
        <time>2012-03-25T07:26:36.870Z</time>
      </trkpt>
      <trkpt lat="49.13557" lon="1.94027">
        <ele>61</ele>
        <time>2012-03-25T07:26:42.860Z</time>
      </trkpt>
      <trkpt lat="49.13542" lon="1.94062">
        <ele>62</ele>
        <time>2012-03-25T07:26:53.860Z</time>
      </trkpt>
      <trkpt lat="49.13523" lon="1.94075">
        <ele>66</ele>
        <time>2012-03-25T07:27:05.380Z</time>
      </trkpt>
      <trkpt lat="49.13497" lon="1.94108">
        <ele>66</ele>
        <time>2012-03-25T07:27:18.870Z</time>
      </trkpt>
      <trkpt lat="49.1342" lon="1.94183">
        <ele>66</ele>
        <time>2012-03-25T07:27:41.870Z</time>
      </trkpt>
      <trkpt lat="49.13398" lon="1.94208">
        <ele>66</ele>
        <time>2012-03-25T07:27:47.860Z</time>
      </trkpt>
      <trkpt lat="49.13372" lon="1.94245">
        <ele>64</ele>
        <time>2012-03-25T07:27:55.870Z</time>
      </trkpt>
      <trkpt lat="49.13333" lon="1.94283">
        <ele>63</ele>
        <time>2012-03-25T07:28:04.860Z</time>
      </trkpt>
      <trkpt lat="49.13297" lon="1.94315">
        <ele>63</ele>
        <time>2012-03-25T07:28:11.860Z</time>
      </trkpt>
      <trkpt lat="49.13263" lon="1.9435">
        <ele>63</ele>
        <time>2012-03-25T07:28:19.380Z</time>
      </trkpt>
      <trkpt lat="49.1318" lon="1.94398">
        <ele>61</ele>
        <time>2012-03-25T07:28:41.860Z</time>
      </trkpt>
      <trkpt lat="49.13125" lon="1.94442">
        <ele>68</ele>
        <time>2012-03-25T07:28:54.870Z</time>
      </trkpt>
      <trkpt lat="49.13097" lon="1.94475">
        <ele>67</ele>
        <time>2012-03-25T07:29:04.860Z</time>
      </trkpt>
      <trkpt lat="49.13063" lon="1.9451">
        <ele>66</ele>
        <time>2012-03-25T07:29:18.860Z</time>
      </trkpt>
      <trkpt lat="49.13037" lon="1.9454">
        <ele>72</ele>
        <time>2012-03-25T07:29:56.880Z</time>
      </trkpt>
      <trkpt lat="49.13025" lon="1.94547">
        <ele>73</ele>
        <time>2012-03-25T07:31:07.870Z</time>
      </trkpt>
      <trkpt lat="49.1301" lon="1.94572">
        <ele>76</ele>
        <time>2012-03-25T07:33:36.860Z</time>
      </trkpt>
      <trkpt lat="49.12977" lon="1.94607">
        <ele>75</ele>
        <time>2012-03-25T07:33:48.860Z</time>
      </trkpt>
      <trkpt lat="49.12952" lon="1.94623">
        <ele>75</ele>
        <time>2012-03-25T07:33:56.870Z</time>
      </trkpt>
      <trkpt lat="49.12933" lon="1.9463">
        <ele>74</ele>
        <time>2012-03-25T07:34:14.870Z</time>
      </trkpt>
      <trkpt lat="49.12867" lon="1.9467">
        <ele>74</ele>
        <time>2012-03-25T07:34:37.890Z</time>
      </trkpt>
      <trkpt lat="49.12792" lon="1.9466">
        <ele>75</ele>
        <time>2012-03-25T07:34:55.880Z</time>
      </trkpt>
      <trkpt lat="49.12692" lon="1.9466">
        <ele>74</ele>
        <time>2012-03-25T07:35:13.880Z</time>
      </trkpt>
      <trkpt lat="49.12637" lon="1.94692">
        <ele>69</ele>
        <time>2012-03-25T07:35:22.890Z</time>
      </trkpt>
      <trkpt lat="49.12575" lon="1.94703">
        <ele>69</ele>
        <time>2012-03-25T07:35:32.880Z</time>
      </trkpt>
      <trkpt lat="49.12528" lon="1.94725">
        <ele>62</ele>
        <time>2012-03-25T07:35:43.870Z</time>
      </trkpt>
      <trkpt lat="49.12438" lon="1.94802">
        <ele>61</ele>
        <time>2012-03-25T07:36:03.880Z</time>
      </trkpt>
      <trkpt lat="49.1244" lon="1.94835">
        <ele>59</ele>
        <time>2012-03-25T07:36:10.880Z</time>
      </trkpt>
      <trkpt lat="49.12427" lon="1.94875">
        <ele>59</ele>
        <time>2012-03-25T07:36:18.890Z</time>
      </trkpt>
      <trkpt lat="49.12437" lon="1.94903">
        <ele>58</ele>
        <time>2012-03-25T07:36:26.870Z</time>
      </trkpt>
      <trkpt lat="49.12418" lon="1.94883">
        <ele>60</ele>
        <time>2012-03-25T07:40:55.870Z</time>
      </trkpt>
      <trkpt lat="49.1243" lon="1.94852">
        <ele>59</ele>
        <time>2012-03-25T07:41:03.860Z</time>
      </trkpt>
      <trkpt lat="49.12423" lon="1.9482">
        <ele>61</ele>
        <time>2012-03-25T07:41:10.860Z</time>
      </trkpt>
      <trkpt lat="49.12532" lon="1.94722">
        <ele>61</ele>
        <time>2012-03-25T07:41:43.860Z</time>
      </trkpt>
      <trkpt lat="49.1267" lon="1.94673">
        <ele>61</ele>
        <time>2012-03-25T07:42:12.870Z</time>
      </trkpt>
      <trkpt lat="49.1277" lon="1.9468">
        <ele>59</ele>
        <time>2012-03-25T07:42:33.870Z</time>
      </trkpt>
      <trkpt lat="49.12815" lon="1.94693">
        <ele>59</ele>
        <time>2012-03-25T07:42:44.880Z</time>
      </trkpt>
      <trkpt lat="49.12862" lon="1.94667">
        <ele>59</ele>
        <time>2012-03-25T07:42:57.880Z</time>
      </trkpt>
      <trkpt lat="49.12898" lon="1.94648">
        <ele>89</ele>
        <time>2012-03-25T07:43:10.870Z</time>
      </trkpt>
      <trkpt lat="49.12922" lon="1.94645">
        <ele>90</ele>
        <time>2012-03-25T07:43:30.870Z</time>
      </trkpt>
      <trkpt lat="49.12942" lon="1.94637">
        <ele>81</ele>
        <time>2012-03-25T07:43:37.870Z</time>
      </trkpt>
      <trkpt lat="49.12973" lon="1.94612">
        <ele>80</ele>
        <time>2012-03-25T07:43:48.870Z</time>
      </trkpt>
      <trkpt lat="49.12987" lon="1.94583">
        <ele>79</ele>
        <time>2012-03-25T07:43:58.870Z</time>
      </trkpt>
      <trkpt lat="49.13" lon="1.94557">
        <ele>73</ele>
        <time>2012-03-25T07:44:08.880Z</time>
      </trkpt>
      <trkpt lat="49.13022" lon="1.94525">
        <ele>66</ele>
        <time>2012-03-25T07:44:21.870Z</time>
      </trkpt>
      <trkpt lat="49.13093" lon="1.94453">
        <ele>67</ele>
        <time>2012-03-25T07:44:45.880Z</time>
      </trkpt>
      <trkpt lat="49.13135" lon="1.94422">
        <ele>68</ele>
        <time>2012-03-25T07:45:06.880Z</time>
      </trkpt>
      <trkpt lat="49.13173" lon="1.94405">
        <ele>46</ele>
        <time>2012-03-25T07:45:18.880Z</time>
      </trkpt>
      <trkpt lat="49.13192" lon="1.9439">
        <ele>48</ele>
        <time>2012-03-25T07:45:23.880Z</time>
      </trkpt>
      <trkpt lat="49.13213" lon="1.94365">
        <ele>49</ele>
        <time>2012-03-25T07:45:28.880Z</time>
      </trkpt>
      <trkpt lat="49.1325" lon="1.94343">
        <ele>48</ele>
        <time>2012-03-25T07:45:36.880Z</time>
      </trkpt>
      <trkpt lat="49.13277" lon="1.94322">
        <ele>50</ele>
        <time>2012-03-25T07:45:44.400Z</time>
      </trkpt>
      <trkpt lat="49.1331" lon="1.94287">
        <ele>65</ele>
        <time>2012-03-25T07:45:53.880Z</time>
      </trkpt>
      <trkpt lat="49.1334" lon="1.9425">
        <ele>68</ele>
        <time>2012-03-25T07:46:08.870Z</time>
      </trkpt>
      <trkpt lat="49.13355" lon="1.94248">
        <ele>74</ele>
        <time>2012-03-25T07:46:21.880Z</time>
      </trkpt>
      <trkpt lat="49.13372" lon="1.94242">
        <ele>69</ele>
        <time>2012-03-25T07:48:03.870Z</time>
      </trkpt>
      <trkpt lat="49.13463" lon="1.94153">
        <ele>65</ele>
        <time>2012-03-25T07:48:31.890Z</time>
      </trkpt>
      <trkpt lat="49.1351" lon="1.94103">
        <ele>65</ele>
        <time>2012-03-25T07:48:44.880Z</time>
      </trkpt>
      <trkpt lat="49.1352" lon="1.94087">
        <ele>67</ele>
        <time>2012-03-25T07:48:54.890Z</time>
      </trkpt>
      <trkpt lat="49.13537" lon="1.94067">
        <ele>61</ele>
        <time>2012-03-25T07:49:41.890Z</time>
      </trkpt>
      <trkpt lat="49.1361" lon="1.94215">
        <ele>57</ele>
        <time>2012-03-25T07:50:11.890Z</time>
      </trkpt>
      <trkpt lat="49.13678" lon="1.94312">
        <ele>59</ele>
        <time>2012-03-25T07:50:29.880Z</time>
      </trkpt>
      <trkpt lat="49.1369" lon="1.94343">
        <ele>61</ele>
        <time>2012-03-25T07:50:35.890Z</time>
      </trkpt>
      <trkpt lat="49.13747" lon="1.94338">
        <ele>63</ele>
        <time>2012-03-25T07:50:52.880Z</time>
      </trkpt>
      <trkpt lat="49.13768" lon="1.94387">
        <ele>69</ele>
        <time>2012-03-25T07:51:04.880Z</time>
      </trkpt>
      <trkpt lat="49.13775" lon="1.9447">
        <ele>64</ele>
        <time>2012-03-25T07:51:26.890Z</time>
      </trkpt>
      <trkpt lat="49.13778" lon="1.94497">
        <ele>67</ele>
        <time>2012-03-25T07:51:37.900Z</time>
      </trkpt>
      <trkpt lat="49.13797" lon="1.94493">
        <ele>70</ele>
        <time>2012-03-25T07:52:05.880Z</time>
      </trkpt>
      <trkpt lat="49.13812" lon="1.945">
        <ele>81</ele>
        <time>2012-03-25T07:52:41.890Z</time>
      </trkpt>
      <trkpt lat="49.1384" lon="1.94527">
        <ele>82</ele>
        <time>2012-03-25T07:53:09.890Z</time>
      </trkpt>
      <trkpt lat="49.13867" lon="1.94568">
        <ele>89</ele>
        <time>2012-03-25T07:53:48.900Z</time>
      </trkpt>
      <trkpt lat="49.13887" lon="1.94588">
        <ele>95</ele>
        <time>2012-03-25T07:54:08.900Z</time>
      </trkpt>
      <trkpt lat="49.1392" lon="1.94623">
        <ele>110</ele>
        <time>2012-03-25T07:54:48.900Z</time>
      </trkpt>
      <trkpt lat="49.13965" lon="1.94688">
        <ele>131</ele>
        <time>2012-03-25T07:55:36.450Z</time>
      </trkpt>
      <trkpt lat="49.13983" lon="1.94705">
        <ele>130</ele>
        <time>2012-03-25T07:55:49.900Z</time>
      </trkpt>
      <trkpt lat="49.14" lon="1.9472">
        <ele>120</ele>
        <time>2012-03-25T07:56:55.900Z</time>
      </trkpt>
      <trkpt lat="49.1402" lon="1.94732">
        <ele>115</ele>
        <time>2012-03-25T07:57:28.900Z</time>
      </trkpt>
      <trkpt lat="49.14033" lon="1.94752">
        <ele>113</ele>
        <time>2012-03-25T07:57:47.890Z</time>
      </trkpt>
      <trkpt lat="49.13808" lon="1.9518">
        <ele>112</ele>
        <time>2012-03-25T07:59:09.910Z</time>
      </trkpt>
      <trkpt lat="49.13765" lon="1.95472">
        <ele>112</ele>
        <time>2012-03-25T07:59:58.910Z</time>
      </trkpt>
      <trkpt lat="49.1376" lon="1.9559">
        <ele>112</ele>
        <time>2012-03-25T08:00:16.900Z</time>
      </trkpt>
      <trkpt lat="49.13763" lon="1.95623">
        <ele>112</ele>
        <time>2012-03-25T08:00:23.900Z</time>
      </trkpt>
      <trkpt lat="49.13927" lon="1.95727">
        <ele>109</ele>
        <time>2012-03-25T08:01:02.890Z</time>
      </trkpt>
      <trkpt lat="49.14067" lon="1.95783">
        <ele>105</ele>
        <time>2012-03-25T08:01:26.900Z</time>
      </trkpt>
      <trkpt lat="49.14457" lon="1.96077">
        <ele>102</ele>
        <time>2012-03-25T08:02:41.900Z</time>
      </trkpt>
      <trkpt lat="49.14485" lon="1.96108">
        <ele>102</ele>
        <time>2012-03-25T08:02:49.910Z</time>
      </trkpt>
      <trkpt lat="49.14527" lon="1.96418">
        <ele>102</ele>
        <time>2012-03-25T08:03:36.910Z</time>
      </trkpt>
      <trkpt lat="49.14585" lon="1.9641">
        <ele>99</ele>
        <time>2012-03-25T08:03:49.900Z</time>
      </trkpt>
      <trkpt lat="49.14615" lon="1.96395">
        <ele>97</ele>
        <time>2012-03-25T08:03:54.910Z</time>
      </trkpt>
      <trkpt lat="49.14607" lon="1.96677">
        <ele>101</ele>
        <time>2012-03-25T08:04:31.900Z</time>
      </trkpt>
      <trkpt lat="49.14568" lon="1.96795">
        <ele>100</ele>
        <time>2012-03-25T08:04:51.910Z</time>
      </trkpt>
      <trkpt lat="49.14567" lon="1.96862">
        <ele>100</ele>
        <time>2012-03-25T08:05:05.890Z</time>
      </trkpt>
      <trkpt lat="49.14568" lon="1.96902">
        <ele>100</ele>
        <time>2012-03-25T08:05:13.900Z</time>
      </trkpt>
      <trkpt lat="49.14578" lon="1.96957">
        <ele>100</ele>
        <time>2012-03-25T08:05:24.910Z</time>
      </trkpt>
      <trkpt lat="49.14583" lon="1.9703">
        <ele>106</ele>
        <time>2012-03-25T08:05:37.910Z</time>
      </trkpt>
      <trkpt lat="49.14588" lon="1.97053">
        <ele>107</ele>
        <time>2012-03-25T08:05:44.910Z</time>
      </trkpt>
      <trkpt lat="49.14602" lon="1.97135">
        <ele>107</ele>
        <time>2012-03-25T08:06:07.900Z</time>
      </trkpt>
      <trkpt lat="49.14602" lon="1.97192">
        <ele>110</ele>
        <time>2012-03-25T08:06:20.890Z</time>
      </trkpt>
      <trkpt lat="49.146" lon="1.97255">
        <ele>108</ele>
        <time>2012-03-25T08:06:42.900Z</time>
      </trkpt>
      <trkpt lat="49.14622" lon="1.97298">
        <ele>110</ele>
        <time>2012-03-25T08:07:37.910Z</time>
      </trkpt>
      <trkpt lat="49.14698" lon="1.97367">
        <ele>111</ele>
        <time>2012-03-25T08:07:58.910Z</time>
      </trkpt>
      <trkpt lat="49.14652" lon="1.97513">
        <ele>109</ele>
        <time>2012-03-25T08:08:29.920Z</time>
      </trkpt>
      <trkpt lat="49.14637" lon="1.9757">
        <ele>107</ele>
        <time>2012-03-25T08:08:42.910Z</time>
      </trkpt>
      <trkpt lat="49.1462" lon="1.97623">
        <ele>100</ele>
        <time>2012-03-25T08:08:56.900Z</time>
      </trkpt>
      <trkpt lat="49.14647" lon="1.97817">
        <ele>108</ele>
        <time>2012-03-25T08:09:31.910Z</time>
      </trkpt>
      <trkpt lat="49.1476" lon="1.98182">
        <ele>114</ele>
        <time>2012-03-25T08:10:36.920Z</time>
      </trkpt>
      <trkpt lat="49.14763" lon="1.98322">
        <ele>115</ele>
        <time>2012-03-25T08:10:57.920Z</time>
      </trkpt>
      <trkpt lat="49.14753" lon="1.98378">
        <ele>116</ele>
        <time>2012-03-25T08:11:06.920Z</time>
      </trkpt>
      <trkpt lat="49.1474" lon="1.98422">
        <ele>114</ele>
        <time>2012-03-25T08:11:14.910Z</time>
      </trkpt>
      <trkpt lat="49.14733" lon="1.9844">
        <ele>117</ele>
        <time>2012-03-25T08:11:33.910Z</time>
      </trkpt>
      <trkpt lat="49.14695" lon="1.98498">
        <ele>119</ele>
        <time>2012-03-25T08:11:56.920Z</time>
      </trkpt>
      <trkpt lat="49.1453" lon="1.98658">
        <ele>124</ele>
        <time>2012-03-25T08:12:40.920Z</time>
      </trkpt>
      <trkpt lat="49.14617" lon="1.9884">
        <ele>132</ele>
        <time>2012-03-25T08:13:16.910Z</time>
      </trkpt>
      <trkpt lat="49.14633" lon="1.98895">
        <ele>136</ele>
        <time>2012-03-25T08:13:32.920Z</time>
      </trkpt>
      <trkpt lat="49.14643" lon="1.98932">
        <ele>138</ele>
        <time>2012-03-25T08:13:46.920Z</time>
      </trkpt>
      <trkpt lat="49.14753" lon="1.99112">
        <ele>157</ele>
        <time>2012-03-25T08:15:00.920Z</time>
      </trkpt>
      <trkpt lat="49.14772" lon="1.99123">
        <ele>158</ele>
        <time>2012-03-25T08:15:44.920Z</time>
      </trkpt>
      <trkpt lat="49.148" lon="1.99147">
        <ele>159</ele>
        <time>2012-03-25T08:15:57.920Z</time>
      </trkpt>
      <trkpt lat="49.148" lon="1.99192">
        <ele>162</ele>
        <time>2012-03-25T08:16:09.910Z</time>
      </trkpt>
      <trkpt lat="49.14793" lon="1.99242">
        <ele>161</ele>
        <time>2012-03-25T08:16:23.910Z</time>
      </trkpt>
      <trkpt lat="49.14782" lon="1.99275">
        <ele>161</ele>
        <time>2012-03-25T08:16:50.920Z</time>
      </trkpt>
      <trkpt lat="49.14772" lon="1.99312">
        <ele>161</ele>
        <time>2012-03-25T08:17:17.930Z</time>
      </trkpt>
      <trkpt lat="49.1477" lon="1.99355">
        <ele>161</ele>
        <time>2012-03-25T08:17:26.930Z</time>
      </trkpt>
      <trkpt lat="49.1479" lon="1.99445">
        <ele>162</ele>
        <time>2012-03-25T08:17:46.920Z</time>
      </trkpt>
      <trkpt lat="49.14808" lon="1.99488">
        <ele>162</ele>
        <time>2012-03-25T08:17:56.920Z</time>
      </trkpt>
      <trkpt lat="49.14827" lon="1.99522">
        <ele>162</ele>
        <time>2012-03-25T08:18:02.910Z</time>
      </trkpt>
      <trkpt lat="49.14843" lon="1.99587">
        <ele>162</ele>
        <time>2012-03-25T08:18:13.930Z</time>
      </trkpt>
      <trkpt lat="49.14878" lon="1.99677">
        <ele>156</ele>
        <time>2012-03-25T08:18:27.920Z</time>
      </trkpt>
      <trkpt lat="49.1489" lon="1.99732">
        <ele>156</ele>
        <time>2012-03-25T08:18:45.920Z</time>
      </trkpt>
      <trkpt lat="49.14875" lon="1.99858">
        <ele>162</ele>
        <time>2012-03-25T08:18:57.930Z</time>
      </trkpt>
      <trkpt lat="49.14865" lon="1.99905">
        <ele>163</ele>
        <time>2012-03-25T08:19:08.940Z</time>
      </trkpt>
      <trkpt lat="49.14847" lon="1.99935">
        <ele>163</ele>
        <time>2012-03-25T08:19:13.920Z</time>
      </trkpt>
      <trkpt lat="49.14832" lon="2.00003">
        <ele>164</ele>
        <time>2012-03-25T08:19:26.930Z</time>
      </trkpt>
      <trkpt lat="49.14843" lon="2.00038">
        <ele>178</ele>
        <time>2012-03-25T08:19:38.940Z</time>
      </trkpt>
      <trkpt lat="49.14867" lon="2.00035">
        <ele>180</ele>
        <time>2012-03-25T08:19:57.920Z</time>
      </trkpt>
      <trkpt lat="49.14905" lon="2.00028">
        <ele>185</ele>
        <time>2012-03-25T08:20:25.940Z</time>
      </trkpt>
      <trkpt lat="49.14938" lon="2.00022">
        <ele>194</ele>
        <time>2012-03-25T08:21:33.920Z</time>
      </trkpt>
      <trkpt lat="49.14977" lon="1.99975">
        <ele>190</ele>
        <time>2012-03-25T08:22:01.920Z</time>
      </trkpt>
      <trkpt lat="49.14982" lon="1.99948">
        <ele>196</ele>
        <time>2012-03-25T08:22:14.930Z</time>
      </trkpt>
      <trkpt lat="49.14988" lon="1.99892">
        <ele>192</ele>
        <time>2012-03-25T08:22:28.930Z</time>
      </trkpt>
      <trkpt lat="49.15" lon="1.99842">
        <ele>192</ele>
        <time>2012-03-25T08:22:39.930Z</time>
      </trkpt>
      <trkpt lat="49.1504" lon="1.9978">
        <ele>192</ele>
        <time>2012-03-25T08:22:47.930Z</time>
      </trkpt>
      <trkpt lat="49.15047" lon="1.9974">
        <ele>191</ele>
        <time>2012-03-25T08:22:58.920Z</time>
      </trkpt>
      <trkpt lat="49.15058" lon="1.99713">
        <ele>192</ele>
        <time>2012-03-25T08:23:13.930Z</time>
      </trkpt>
      <trkpt lat="49.1508" lon="1.99693">
        <ele>189</ele>
        <time>2012-03-25T08:23:32.930Z</time>
      </trkpt>
      <trkpt lat="49.151" lon="1.99685">
        <ele>193</ele>
        <time>2012-03-25T08:23:47.930Z</time>
      </trkpt>
      <trkpt lat="49.15098" lon="1.99667">
        <ele>196</ele>
        <time>2012-03-25T08:24:08.930Z</time>
      </trkpt>
      <trkpt lat="49.15112" lon="1.99662">
        <ele>210</ele>
        <time>2012-03-25T08:26:30.940Z</time>
      </trkpt>
      <trkpt lat="49.1513" lon="1.99618">
        <ele>201</ele>
        <time>2012-03-25T08:27:48.940Z</time>
      </trkpt>
      <trkpt lat="49.15145" lon="1.99603">
        <ele>202</ele>
        <time>2012-03-25T08:27:59.940Z</time>
      </trkpt>
      <trkpt lat="49.1515" lon="1.99573">
        <ele>194</ele>
        <time>2012-03-25T08:28:13.940Z</time>
      </trkpt>
      <trkpt lat="49.15138" lon="1.99493">
        <ele>192</ele>
        <time>2012-03-25T08:28:30.940Z</time>
      </trkpt>
      <trkpt lat="49.15148" lon="1.99443">
        <ele>196</ele>
        <time>2012-03-25T08:28:40.930Z</time>
      </trkpt>
      <trkpt lat="49.15162" lon="1.99402">
        <ele>196</ele>
        <time>2012-03-25T08:28:49.440Z</time>
      </trkpt>
      <trkpt lat="49.15178" lon="1.9935">
        <ele>196</ele>
        <time>2012-03-25T08:29:00.940Z</time>
      </trkpt>
      <trkpt lat="49.15182" lon="1.99317">
        <ele>196</ele>
        <time>2012-03-25T08:29:05.950Z</time>
      </trkpt>
      <trkpt lat="49.15237" lon="1.99255">
        <ele>188</ele>
        <time>2012-03-25T08:29:21.940Z</time>
      </trkpt>
      <trkpt lat="49.15387" lon="1.99127">
        <ele>200</ele>
        <time>2012-03-25T08:29:55.950Z</time>
      </trkpt>
      <trkpt lat="49.1544" lon="1.9917">
        <ele>200</ele>
        <time>2012-03-25T08:30:16.950Z</time>
      </trkpt>
      <trkpt lat="49.15472" lon="1.99197">
        <ele>208</ele>
        <time>2012-03-25T08:30:28.460Z</time>
      </trkpt>
      <trkpt lat="49.15507" lon="1.9922">
        <ele>208</ele>
        <time>2012-03-25T08:30:38.940Z</time>
      </trkpt>
      <trkpt lat="49.15537" lon="1.9924">
        <ele>210</ele>
        <time>2012-03-25T08:30:48.950Z</time>
      </trkpt>
      <trkpt lat="49.15583" lon="1.99205">
        <ele>207</ele>
        <time>2012-03-25T08:31:05.950Z</time>
      </trkpt>
      <trkpt lat="49.15583" lon="1.99185">
        <ele>215</ele>
        <time>2012-03-25T08:32:00.950Z</time>
      </trkpt>
      <trkpt lat="49.15575" lon="1.99205">
        <ele>209</ele>
        <time>2012-03-25T08:32:12.950Z</time>
      </trkpt>
      <trkpt lat="49.15567" lon="1.99223">
        <ele>204</ele>
        <time>2012-03-25T08:32:24.970Z</time>
      </trkpt>
      <trkpt lat="49.1555" lon="1.99238">
        <ele>207</ele>
        <time>2012-03-25T08:32:34.950Z</time>
      </trkpt>
      <trkpt lat="49.15543" lon="1.99208">
        <ele>201</ele>
        <time>2012-03-25T08:32:50.510Z</time>
      </trkpt>
      <trkpt lat="49.1553" lon="1.99168">
        <ele>203</ele>
        <time>2012-03-25T08:33:07.960Z</time>
      </trkpt>
      <trkpt lat="49.15512" lon="1.9918">
        <ele>202</ele>
        <time>2012-03-25T08:33:18.950Z</time>
      </trkpt>
      <trkpt lat="49.15495" lon="1.99153">
        <ele>189</ele>
        <time>2012-03-25T08:33:31.960Z</time>
      </trkpt>
      <trkpt lat="49.1548" lon="1.99143">
        <ele>190</ele>
        <time>2012-03-25T08:33:37.950Z</time>
      </trkpt>
      <trkpt lat="49.15462" lon="1.99128">
        <ele>190</ele>
        <time>2012-03-25T08:33:46.480Z</time>
      </trkpt>
      <trkpt lat="49.15472" lon="1.99147">
        <ele>197</ele>
        <time>2012-03-25T08:34:09.940Z</time>
      </trkpt>
      <trkpt lat="49.15475" lon="1.99123">
        <ele>197</ele>
        <time>2012-03-25T08:34:22.960Z</time>
      </trkpt>
      <trkpt lat="49.15477" lon="1.99093">
        <ele>186</ele>
        <time>2012-03-25T08:34:37.950Z</time>
      </trkpt>
      <trkpt lat="49.15468" lon="1.99067">
        <ele>176</ele>
        <time>2012-03-25T08:34:49.940Z</time>
      </trkpt>
      <trkpt lat="49.15463" lon="1.99045">
        <ele>194</ele>
        <time>2012-03-25T08:36:21.510Z</time>
      </trkpt>
      <trkpt lat="49.1549" lon="1.99013">
        <ele>194</ele>
        <time>2012-03-25T08:36:28.940Z</time>
      </trkpt>
      <trkpt lat="49.15485" lon="1.98975">
        <ele>193</ele>
        <time>2012-03-25T08:36:33.950Z</time>
      </trkpt>
      <trkpt lat="49.155" lon="1.9896">
        <ele>186</ele>
        <time>2012-03-25T08:36:41.950Z</time>
      </trkpt>
      <trkpt lat="49.15502" lon="1.9894">
        <ele>184</ele>
        <time>2012-03-25T08:37:40.950Z</time>
      </trkpt>
      <trkpt lat="49.15542" lon="1.99003">
        <ele>202</ele>
        <time>2012-03-25T08:40:30.940Z</time>
      </trkpt>
      <trkpt lat="49.15562" lon="1.99058">
        <ele>198</ele>
        <time>2012-03-25T08:40:58.940Z</time>
      </trkpt>
      <trkpt lat="49.15575" lon="1.99085">
        <ele>199</ele>
        <time>2012-03-25T08:41:20.950Z</time>
      </trkpt>
      <trkpt lat="49.15577" lon="1.99112">
        <ele>202</ele>
        <time>2012-03-25T08:42:43.950Z</time>
      </trkpt>
      <trkpt lat="49.15687" lon="1.99095">
        <ele>202</ele>
        <time>2012-03-25T08:43:58.950Z</time>
      </trkpt>
      <trkpt lat="49.1571" lon="1.99072">
        <ele>200</ele>
        <time>2012-03-25T08:44:04.970Z</time>
      </trkpt>
      <trkpt lat="49.15728" lon="1.99045">
        <ele>207</ele>
        <time>2012-03-25T08:45:07.950Z</time>
      </trkpt>
      <trkpt lat="49.15738" lon="1.99028">
        <ele>206</ele>
        <time>2012-03-25T08:45:54.950Z</time>
      </trkpt>
      <trkpt lat="49.15753" lon="1.98997">
        <ele>210</ele>
        <time>2012-03-25T08:46:48.960Z</time>
      </trkpt>
      <trkpt lat="49.15788" lon="1.98943">
        <ele>207</ele>
        <time>2012-03-25T08:47:05.960Z</time>
      </trkpt>
      <trkpt lat="49.15793" lon="1.98918">
        <ele>207</ele>
        <time>2012-03-25T08:47:11.970Z</time>
      </trkpt>
      <trkpt lat="49.15798" lon="1.9887">
        <ele>207</ele>
        <time>2012-03-25T08:47:25.950Z</time>
      </trkpt>
      <trkpt lat="49.15828" lon="1.98815">
        <ele>210</ele>
        <time>2012-03-25T08:47:43.950Z</time>
      </trkpt>
      <trkpt lat="49.15847" lon="1.9875">
        <ele>201</ele>
        <time>2012-03-25T08:47:56.950Z</time>
      </trkpt>
      <trkpt lat="49.15863" lon="1.9872">
        <ele>201</ele>
        <time>2012-03-25T08:48:00.960Z</time>
      </trkpt>
      <trkpt lat="49.1584" lon="1.98693">
        <ele>201</ele>
        <time>2012-03-25T08:48:06.960Z</time>
      </trkpt>
      <trkpt lat="49.15853" lon="1.98637">
        <ele>199</ele>
        <time>2012-03-25T08:48:20.960Z</time>
      </trkpt>
      <trkpt lat="49.15845" lon="1.98588">
        <ele>207</ele>
        <time>2012-03-25T08:48:35.970Z</time>
      </trkpt>
      <trkpt lat="49.15852" lon="1.98562">
        <ele>210</ele>
        <time>2012-03-25T08:48:42.970Z</time>
      </trkpt>
      <trkpt lat="49.15865" lon="1.98535">
        <ele>203</ele>
        <time>2012-03-25T08:48:50.960Z</time>
      </trkpt>
      <trkpt lat="49.15868" lon="1.9847">
        <ele>203</ele>
        <time>2012-03-25T08:48:55.950Z</time>
      </trkpt>
      <trkpt lat="49.15892" lon="1.9845">
        <ele>202</ele>
        <time>2012-03-25T08:49:05.960Z</time>
      </trkpt>
      <trkpt lat="49.15915" lon="1.98397">
        <ele>203</ele>
        <time>2012-03-25T08:49:18.570Z</time>
      </trkpt>
      <trkpt lat="49.15937" lon="1.98373">
        <ele>205</ele>
        <time>2012-03-25T08:49:26.960Z</time>
      </trkpt>
      <trkpt lat="49.1596" lon="1.98372">
        <ele>201</ele>
        <time>2012-03-25T08:49:33.970Z</time>
      </trkpt>
      <trkpt lat="49.16" lon="1.9837">
        <ele>199</ele>
        <time>2012-03-25T08:49:53.970Z</time>
      </trkpt>
      <trkpt lat="49.16017" lon="1.98368">
        <ele>204</ele>
        <time>2012-03-25T08:50:25.960Z</time>
      </trkpt>
      <trkpt lat="49.16045" lon="1.98398">
        <ele>207</ele>
        <time>2012-03-25T08:51:05.960Z</time>
      </trkpt>
      <trkpt lat="49.16067" lon="1.98418">
        <ele>207</ele>
        <time>2012-03-25T08:51:35.960Z</time>
      </trkpt>
      <trkpt lat="49.16088" lon="1.98427">
        <ele>207</ele>
        <time>2012-03-25T08:51:54.960Z</time>
      </trkpt>
      <trkpt lat="49.16163" lon="1.98273">
        <ele>210</ele>
        <time>2012-03-25T08:52:24.960Z</time>
      </trkpt>
      <trkpt lat="49.162" lon="1.98243">
        <ele>211</ele>
        <time>2012-03-25T08:52:30.960Z</time>
      </trkpt>
      <trkpt lat="49.16222" lon="1.9819">
        <ele>210</ele>
        <time>2012-03-25T08:52:49.960Z</time>
      </trkpt>
      <trkpt lat="49.16282" lon="1.9812">
        <ele>210</ele>
        <time>2012-03-25T08:52:59.960Z</time>
      </trkpt>
      <trkpt lat="49.16363" lon="1.97973">
        <ele>205</ele>
        <time>2012-03-25T08:53:16.960Z</time>
      </trkpt>
      <trkpt lat="49.16427" lon="1.979">
        <ele>192</ele>
        <time>2012-03-25T08:53:33.970Z</time>
      </trkpt>
      <trkpt lat="49.16497" lon="1.97958">
        <ele>192</ele>
        <time>2012-03-25T08:53:37.960Z</time>
      </trkpt>
      <trkpt lat="49.17258" lon="1.98683">
        <ele>139</ele>
        <time>2012-03-25T08:55:47.960Z</time>
      </trkpt>
      <trkpt lat="49.17333" lon="1.9872">
        <ele>137</ele>
        <time>2012-03-25T08:55:59.960Z</time>
      </trkpt>
      <trkpt lat="49.1737" lon="1.98712">
        <ele>137</ele>
        <time>2012-03-25T08:56:05.970Z</time>
      </trkpt>
      <trkpt lat="49.17637" lon="1.98332">
        <ele>131</ele>
        <time>2012-03-25T08:57:01.970Z</time>
      </trkpt>
      <trkpt lat="49.17788" lon="1.98483">
        <ele>122</ele>
        <time>2012-03-25T08:57:33.970Z</time>
      </trkpt>
      <trkpt lat="49.17935" lon="1.98693">
        <ele>112</ele>
        <time>2012-03-25T08:57:58.500Z</time>
      </trkpt>
      <trkpt lat="49.17998" lon="1.98762">
        <ele>129</ele>
        <time>2012-03-25T08:58:18.970Z</time>
      </trkpt>
      <trkpt lat="49.18015" lon="1.98793">
        <ele>125</ele>
        <time>2012-03-25T08:58:32.970Z</time>
      </trkpt>
      <trkpt lat="49.1808" lon="1.98845">
        <ele>130</ele>
        <time>2012-03-25T08:59:08.970Z</time>
      </trkpt>
      <trkpt lat="49.18108" lon="1.98887">
        <ele>129</ele>
        <time>2012-03-25T09:02:49.000Z</time>
      </trkpt>
      <trkpt lat="49.18143" lon="1.98942">
        <ele>128</ele>
        <time>2012-03-25T09:02:59.970Z</time>
      </trkpt>
      <trkpt lat="49.18335" lon="1.99367">
        <ele>123</ele>
        <time>2012-03-25T09:04:17.980Z</time>
      </trkpt>
      <trkpt lat="49.18375" lon="1.99358">
        <ele>123</ele>
        <time>2012-03-25T09:04:29.980Z</time>
      </trkpt>
      <trkpt lat="49.18463" lon="1.99262">
        <ele>125</ele>
        <time>2012-03-25T09:05:00.970Z</time>
      </trkpt>
      <trkpt lat="49.18495" lon="1.99248">
        <ele>127</ele>
        <time>2012-03-25T09:05:10.990Z</time>
      </trkpt>
      <trkpt lat="49.18525" lon="1.99267">
        <ele>128</ele>
        <time>2012-03-25T09:05:20.980Z</time>
      </trkpt>
      <trkpt lat="49.18548" lon="1.99292">
        <ele>127</ele>
        <time>2012-03-25T09:05:29.980Z</time>
      </trkpt>
      <trkpt lat="49.186" lon="1.99295">
        <ele>131</ele>
        <time>2012-03-25T09:05:50.980Z</time>
      </trkpt>
      <trkpt lat="49.18635" lon="1.99303">
        <ele>133</ele>
        <time>2012-03-25T09:06:06.990Z</time>
      </trkpt>
      <trkpt lat="49.18677" lon="1.99322">
        <ele>140</ele>
        <time>2012-03-25T09:06:26.980Z</time>
      </trkpt>
      <trkpt lat="49.18723" lon="1.99363">
        <ele>138</ele>
        <time>2012-03-25T09:06:41.990Z</time>
      </trkpt>
      <trkpt lat="49.1879" lon="1.99373">
        <ele>140</ele>
        <time>2012-03-25T09:06:56.990Z</time>
      </trkpt>
      <trkpt lat="49.18825" lon="1.99345">
        <ele>140</ele>
        <time>2012-03-25T09:07:13.980Z</time>
      </trkpt>
      <trkpt lat="49.18892" lon="1.99222">
        <ele>139</ele>
        <time>2012-03-25T09:07:35.990Z</time>
      </trkpt>
      <trkpt lat="49.18912" lon="1.99143">
        <ele>139</ele>
        <time>2012-03-25T09:07:44.990Z</time>
      </trkpt>
      <trkpt lat="49.19007" lon="1.99022">
        <ele>137</ele>
        <time>2012-03-25T09:08:06.980Z</time>
      </trkpt>
      <trkpt lat="49.19058" lon="1.9876">
        <ele>129</ele>
        <time>2012-03-25T09:08:28.000Z</time>
      </trkpt>
      <trkpt lat="49.19068" lon="1.98043">
        <ele>118</ele>
        <time>2012-03-25T09:09:22.990Z</time>
      </trkpt>
      <trkpt lat="49.19125" lon="1.97733">
        <ele>114</ele>
        <time>2012-03-25T09:09:48.990Z</time>
      </trkpt>
      <trkpt lat="49.19172" lon="1.97392">
        <ele>113</ele>
        <time>2012-03-25T09:10:24.980Z</time>
      </trkpt>
      <trkpt lat="49.1928" lon="1.97042">
        <ele>107</ele>
        <time>2012-03-25T09:11:05.000Z</time>
      </trkpt>
      <trkpt lat="49.1932" lon="1.96925">
        <ele>108</ele>
        <time>2012-03-25T09:11:16.990Z</time>
      </trkpt>
      <trkpt lat="49.1932" lon="1.96665">
        <ele>115</ele>
        <time>2012-03-25T09:11:46.980Z</time>
      </trkpt>
      <trkpt lat="49.19318" lon="1.96448">
        <ele>120</ele>
        <time>2012-03-25T09:12:14.980Z</time>
      </trkpt>
      <trkpt lat="49.19328" lon="1.9638">
        <ele>123</ele>
        <time>2012-03-25T09:12:27.990Z</time>
      </trkpt>
      <trkpt lat="49.19337" lon="1.96333">
        <ele>125</ele>
        <time>2012-03-25T09:12:39.000Z</time>
      </trkpt>
      <trkpt lat="49.19338" lon="1.96257">
        <ele>122</ele>
        <time>2012-03-25T09:12:55.000Z</time>
      </trkpt>
      <trkpt lat="49.18903" lon="1.95658">
        <ele>112</ele>
        <time>2012-03-25T09:16:10.000Z</time>
      </trkpt>
      <trkpt lat="49.18893" lon="1.95585">
        <ele>111</ele>
        <time>2012-03-25T09:16:16.990Z</time>
      </trkpt>
      <trkpt lat="49.189" lon="1.95498">
        <ele>112</ele>
        <time>2012-03-25T09:16:25.000Z</time>
      </trkpt>
      <trkpt lat="49.18863" lon="1.9526">
        <ele>113</ele>
        <time>2012-03-25T09:16:49.000Z</time>
      </trkpt>
      <trkpt lat="49.18742" lon="1.9499">
        <ele>120</ele>
        <time>2012-03-25T09:17:31.990Z</time>
      </trkpt>
      <trkpt lat="49.18702" lon="1.94927">
        <ele>118</ele>
        <time>2012-03-25T09:17:45.000Z</time>
      </trkpt>
      <trkpt lat="49.18678" lon="1.94823">
        <ele>119</ele>
        <time>2012-03-25T09:17:57.990Z</time>
      </trkpt>
      <trkpt lat="49.18665" lon="1.94772">
        <ele>114</ele>
        <time>2012-03-25T09:18:07.990Z</time>
      </trkpt>
      <trkpt lat="49.18603" lon="1.9467">
        <ele>108</ele>
        <time>2012-03-25T09:18:26.010Z</time>
      </trkpt>
      <trkpt lat="49.18568" lon="1.947">
        <ele>107</ele>
        <time>2012-03-25T09:18:58.000Z</time>
      </trkpt>
      <trkpt lat="49.1852" lon="1.94733">
        <ele>106</ele>
        <time>2012-03-25T09:19:08.990Z</time>
      </trkpt>
      <trkpt lat="49.17868" lon="1.9359">
        <ele>106</ele>
        <time>2012-03-25T09:21:22.530Z</time>
      </trkpt>
      <trkpt lat="49.1785" lon="1.93538">
        <ele>106</ele>
        <time>2012-03-25T09:21:48.000Z</time>
      </trkpt>
      <trkpt lat="49.17875" lon="1.9329">
        <ele>106</ele>
        <time>2012-03-25T09:21:52.010Z</time>
      </trkpt>
      <trkpt lat="49.17907" lon="1.93293">
        <ele>105</ele>
        <time>2012-03-25T09:21:57.010Z</time>
      </trkpt>
      <trkpt lat="49.17928" lon="1.93292">
        <ele>89</ele>
        <time>2012-03-25T09:22:05.000Z</time>
      </trkpt>
      <trkpt lat="49.17897" lon="1.93288">
        <ele>89</ele>
        <time>2012-03-25T09:22:21.010Z</time>
      </trkpt>
      <trkpt lat="49.17833" lon="1.93128">
        <ele>89</ele>
        <time>2012-03-25T09:22:27.010Z</time>
      </trkpt>
      <trkpt lat="49.17795" lon="1.93108">
        <ele>89</ele>
        <time>2012-03-25T09:22:30.520Z</time>
      </trkpt>
      <trkpt lat="49.17775" lon="1.93102">
        <ele>80</ele>
        <time>2012-03-25T09:22:33.000Z</time>
      </trkpt>
      <trkpt lat="49.17723" lon="1.93132">
        <ele>73</ele>
        <time>2012-03-25T09:23:16.010Z</time>
      </trkpt>
      <trkpt lat="49.17682" lon="1.93153">
        <ele>66</ele>
        <time>2012-03-25T09:24:52.010Z</time>
      </trkpt>
      <trkpt lat="49.17557" lon="1.93102">
        <ele>67</ele>
        <time>2012-03-25T09:25:11.020Z</time>
      </trkpt>
      <trkpt lat="49.17467" lon="1.9317">
        <ele>66</ele>
        <time>2012-03-25T09:25:28.020Z</time>
      </trkpt>
      <trkpt lat="49.17387" lon="1.93188">
        <ele>66</ele>
        <time>2012-03-25T09:25:40.000Z</time>
      </trkpt>
      <trkpt lat="49.17347" lon="1.93195">
        <ele>67</ele>
        <time>2012-03-25T09:25:46.010Z</time>
      </trkpt>
      <trkpt lat="49.1726" lon="1.93253">
        <ele>67</ele>
        <time>2012-03-25T09:26:01.000Z</time>
      </trkpt>
      <trkpt lat="49.17207" lon="1.93277">
        <ele>72</ele>
        <time>2012-03-25T09:26:12.010Z</time>
      </trkpt>
      <trkpt lat="49.17155" lon="1.93315">
        <ele>73</ele>
        <time>2012-03-25T09:26:23.010Z</time>
      </trkpt>
      <trkpt lat="49.17123" lon="1.93323">
        <ele>77</ele>
        <time>2012-03-25T09:26:30.010Z</time>
      </trkpt>
      <trkpt lat="49.17092" lon="1.93307">
        <ele>79</ele>
        <time>2012-03-25T09:26:37.010Z</time>
      </trkpt>
      <trkpt lat="49.17017" lon="1.93275">
        <ele>82</ele>
        <time>2012-03-25T09:26:56.010Z</time>
      </trkpt>
      <trkpt lat="49.1698" lon="1.93258">
        <ele>80</ele>
        <time>2012-03-25T09:27:07.010Z</time>
      </trkpt>
      <trkpt lat="49.16943" lon="1.93262">
        <ele>80</ele>
        <time>2012-03-25T09:27:18.000Z</time>
      </trkpt>
      <trkpt lat="49.16918" lon="1.9327">
        <ele>81</ele>
        <time>2012-03-25T09:27:27.010Z</time>
      </trkpt>
      <trkpt lat="49.16833" lon="1.9331">
        <ele>88</ele>
        <time>2012-03-25T09:28:07.000Z</time>
      </trkpt>
      <trkpt lat="49.16818" lon="1.93323">
        <ele>89</ele>
        <time>2012-03-25T09:28:15.010Z</time>
      </trkpt>
      <trkpt lat="49.16813" lon="1.93348">
        <ele>89</ele>
        <time>2012-03-25T09:28:53.010Z</time>
      </trkpt>
      <trkpt lat="49.16797" lon="1.93453">
        <ele>87</ele>
        <time>2012-03-25T09:29:23.010Z</time>
      </trkpt>
      <trkpt lat="49.16798" lon="1.93513">
        <ele>86</ele>
        <time>2012-03-25T09:29:30.010Z</time>
      </trkpt>
      <trkpt lat="49.1679" lon="1.93577">
        <ele>84</ele>
        <time>2012-03-25T09:29:37.010Z</time>
      </trkpt>
      <trkpt lat="49.16803" lon="1.93645">
        <ele>82</ele>
        <time>2012-03-25T09:29:44.020Z</time>
      </trkpt>
      <trkpt lat="49.16818" lon="1.9366">
        <ele>77</ele>
        <time>2012-03-25T09:29:52.010Z</time>
      </trkpt>
      <trkpt lat="49.16842" lon="1.93647">
        <ele>72</ele>
        <time>2012-03-25T09:30:07.010Z</time>
      </trkpt>
      <trkpt lat="49.16848" lon="1.93712">
        <ele>75</ele>
        <time>2012-03-25T09:32:51.020Z</time>
      </trkpt>
      <trkpt lat="49.16855" lon="1.93752">
        <ele>72</ele>
        <time>2012-03-25T09:32:58.020Z</time>
      </trkpt>
      <trkpt lat="49.16875" lon="1.9381">
        <ele>71</ele>
        <time>2012-03-25T09:33:08.010Z</time>
      </trkpt>
      <trkpt lat="49.16828" lon="1.93795">
        <ele>68</ele>
        <time>2012-03-25T09:33:21.020Z</time>
      </trkpt>
      <trkpt lat="49.16722" lon="1.93655">
        <ele>68</ele>
        <time>2012-03-25T09:33:43.010Z</time>
      </trkpt>
      <trkpt lat="49.16592" lon="1.93688">
        <ele>68</ele>
        <time>2012-03-25T09:34:02.010Z</time>
      </trkpt>
      <trkpt lat="49.16427" lon="1.93745">
        <ele>68</ele>
        <time>2012-03-25T09:34:37.010Z</time>
      </trkpt>
      <trkpt lat="49.1642" lon="1.93772">
        <ele>67</ele>
        <time>2012-03-25T09:34:46.010Z</time>
      </trkpt>
      <trkpt lat="49.16377" lon="1.93783">
        <ele>66</ele>
        <time>2012-03-25T09:34:57.020Z</time>
      </trkpt>
      <trkpt lat="49.16193" lon="1.93785">
        <ele>65</ele>
        <time>2012-03-25T09:35:59.010Z</time>
      </trkpt>
      <trkpt lat="49.1616" lon="1.93775">
        <ele>66</ele>
        <time>2012-03-25T09:36:06.010Z</time>
      </trkpt>
      <trkpt lat="49.16115" lon="1.93783">
        <ele>66</ele>
        <time>2012-03-25T09:36:20.010Z</time>
      </trkpt>
      <trkpt lat="49.16037" lon="1.93793">
        <ele>65</ele>
        <time>2012-03-25T09:37:00.010Z</time>
      </trkpt>
      <trkpt lat="49.16043" lon="1.93887">
        <ele>66</ele>
        <time>2012-03-25T09:38:25.020Z</time>
      </trkpt>
      <trkpt lat="49.16042" lon="1.93928">
        <ele>65</ele>
        <time>2012-03-25T09:38:36.020Z</time>
      </trkpt>
    </trkseg>
  </trk>
</gpx>